createdAt,value
2023-02-06T00:01:37.832Z,54.20
2023-02-06T00:03:41.812Z,49.22
2023-02-06T00:05:59.469Z,50.33
2023-02-06T00:08:01.581Z,49.45
2023-02-06T00:10:20.171Z,48.20
2023-02-06T00:12:25.171Z,47.75
2023-02-06T00:14:28.335Z,53.25
2023-02-06T00:16:33.027Z,46.08
2023-02-06T00:18:35.993Z,50.22
2023-02-06T00:20:45.659Z,47.50
2023-02-06T00:22:48.600Z,46.65
2023-02-06T00:24:54.593Z,47.72
2023-02-06T00:27:05.776Z,52.05
2023-02-06T00:29:07.886Z,48.25
2023-02-06T00:31:10.523Z,49.72
2023-02-06T00:33:17.623Z,48.33
2023-02-06T00:35:20.716Z,42.78
2023-02-06T00:37:36.442Z,43.80
2023-02-06T00:39:55.670Z,44.78
2023-02-06T00:41:58.626Z,45.10
2023-02-06T00:44:06.662Z,41.35
2023-02-06T00:46:36.468Z,40.72
2023-02-06T00:48:42.450Z,42.88
2023-02-06T00:50:54.110Z,43.72
2023-02-06T00:52:57.257Z,46.95
2023-02-06T00:55:01.196Z,44.53
2023-02-06T00:57:05.124Z,47.20
2023-02-06T00:59:10.601Z,44.75
2023-02-06T01:01:16.805Z,40.80
2023-02-06T01:03:19.927Z,43.55
2023-02-06T01:05:22.824Z,43.38
2023-02-06T01:07:26.798Z,46.70
2023-02-06T01:09:32.911Z,45.30
2023-02-06T01:11:59.495Z,43.63
2023-02-06T01:14:02.567Z,41.35
2023-02-06T01:16:23.571Z,43.95
2023-02-06T01:18:55.413Z,43.43
2023-02-06T01:20:57.334Z,43.72
2023-02-06T01:23:00.279Z,44.72
2023-02-06T01:25:05.470Z,40.65
2023-02-06T01:27:16.623Z,43.00
2023-02-06T01:29:18.520Z,42.00
2023-02-06T01:31:28.417Z,45.30
2023-02-06T01:33:31.377Z,45.65
2023-02-06T01:35:56.580Z,42.92
2023-02-06T01:38:05.242Z,43.05
2023-02-06T01:40:13.293Z,46.00
2023-02-06T01:42:16.316Z,45.40
2023-02-06T01:44:26.612Z,45.25
2023-02-06T01:46:35.493Z,40.97
2023-02-06T01:48:50.959Z,41.85
2023-02-06T01:50:57.152Z,46.60
2023-02-06T01:53:07.327Z,45.22
2023-02-06T01:55:10.280Z,41.55
2023-02-06T01:57:20.228Z,42.10
2023-02-06T01:59:25.744Z,43.85
2023-02-06T02:01:49.233Z,43.85
2023-02-06T02:03:58.479Z,37.72
2023-02-06T02:06:06.144Z,40.00
2023-02-06T02:08:18.568Z,45.70
2023-02-06T02:10:20.575Z,42.13
2023-02-06T02:12:38.555Z,43.63
2023-02-06T02:14:51.453Z,42.05
2023-02-06T02:17:15.293Z,40.50
2023-02-06T02:19:54.587Z,42.58
2023-02-06T02:22:34.031Z,43.70
2023-02-06T02:25:19.444Z,37.83
2023-02-06T02:28:22.599Z,43.03
2023-02-06T02:30:38.150Z,37.70
2023-02-06T02:32:46.885Z,41.42
2023-02-06T02:35:04.972Z,40.28
2023-02-06T02:37:35.256Z,42.67
2023-02-06T02:40:06.138Z,41.13
2023-02-06T02:42:20.932Z,41.17
2023-02-06T02:44:32.989Z,42.22
2023-02-06T02:46:41.743Z,37.38
2023-02-06T02:49:05.995Z,40.40
2023-02-06T02:51:25.757Z,37.88
2023-02-06T02:53:28.280Z,40.15
2023-02-06T02:55:32.337Z,37.53
2023-02-06T02:57:40.558Z,41.38
2023-02-06T02:59:57.807Z,41.65
2023-02-06T03:02:11.906Z,40.00
2023-02-06T03:04:31.288Z,36.65
2023-02-06T03:06:51.545Z,52.50
2023-02-06T03:09:12.281Z,41.75
2023-02-06T03:11:20.416Z,43.95
2023-02-06T03:13:32.168Z,38.67
2023-02-06T03:18:08.626Z,38.28
2023-02-06T03:20:14.436Z,39.55
2023-02-06T03:22:17.727Z,43.10
2023-02-06T03:24:36.128Z,39.15
2023-02-06T03:26:40.441Z,40.10
2023-02-06T03:28:50.592Z,41.10
2023-02-06T03:30:56.731Z,41.22
2023-02-06T03:33:10.713Z,43.20
2023-02-06T03:35:22.728Z,39.70
2023-02-06T03:37:28.511Z,44.75
2023-02-06T03:39:32.522Z,40.45
2023-02-06T03:41:39.538Z,40.20
2023-02-06T03:43:51.277Z,40.35
2023-02-06T03:48:19.479Z,42.80
2023-02-06T03:50:23.772Z,45.22
2023-02-06T03:52:34.033Z,42.65
2023-02-06T03:54:49.187Z,44.47
2023-02-06T03:57:01.344Z,49.65
2023-02-06T03:59:13.264Z,49.20
2023-02-06T04:01:18.876Z,45.53
2023-02-06T04:03:23.138Z,45.03
2023-02-06T04:05:25.886Z,47.00
2023-02-06T04:07:36.083Z,48.42
2023-02-06T04:09:40.291Z,45.55
2023-02-06T04:11:43.322Z,42.88
2023-02-06T04:13:52.051Z,45.08
2023-02-06T04:15:56.427Z,38.60
2023-02-06T04:18:01.649Z,37.65
2023-02-06T04:20:06.272Z,39.25
2023-02-06T04:22:18.629Z,45.03
2023-02-06T04:24:21.573Z,45.20
2023-02-06T04:26:24.559Z,39.97
2023-02-06T04:28:27.354Z,38.00
2023-02-06T04:30:30.361Z,38.58
2023-02-06T04:32:32.365Z,43.17
2023-02-06T04:34:36.202Z,42.90
2023-02-06T04:36:42.026Z,36.80
2023-02-06T04:38:44.965Z,42.35
2023-02-06T04:40:47.810Z,35.10
2023-02-06T04:42:50.655Z,39.42
2023-02-06T04:44:53.542Z,37.47
2023-02-06T04:47:03.306Z,39.13
2023-02-06T04:49:06.209Z,40.90
2023-02-06T04:51:20.982Z,39.10
2023-02-06T04:53:29.009Z,42.83
2023-02-06T04:55:31.018Z,36.97
2023-02-06T04:57:33.904Z,34.55
2023-02-06T04:59:42.019Z,31.60
2023-02-06T05:01:50.673Z,38.60
2023-02-06T05:03:54.672Z,30.63
2023-02-06T05:05:59.794Z,32.72
2023-02-06T05:08:01.726Z,31.00
2023-02-06T05:10:22.608Z,35.75
2023-02-06T05:12:31.660Z,30.92
2023-02-06T05:14:39.696Z,28.90
2023-02-06T05:16:48.459Z,33.65
2023-02-06T05:18:54.493Z,33.38
2023-02-06T05:21:08.768Z,33.65
2023-02-06T05:23:11.059Z,32.80
2023-02-06T05:25:16.250Z,36.90
2023-02-06T05:27:36.439Z,34.30
2023-02-06T05:29:38.409Z,36.85
2023-02-06T05:31:45.364Z,36.35
2023-02-06T05:33:53.803Z,36.08
2023-02-06T05:36:02.080Z,37.42
2023-02-06T05:38:07.054Z,33.13
2023-02-06T05:40:11.645Z,30.13
2023-02-06T05:42:14.557Z,31.20
2023-02-06T05:44:17.622Z,33.20
2023-02-06T05:46:26.878Z,27.90
2023-02-06T05:48:30.917Z,26.65
2023-02-06T05:50:33.029Z,29.63
2023-02-06T05:52:42.142Z,28.88
2023-02-06T05:54:45.353Z,29.10
2023-02-06T05:56:51.316Z,26.77
2023-02-06T05:58:54.268Z,32.17
2023-02-06T06:00:57.303Z,29.17
2023-02-06T06:02:59.180Z,30.42
2023-02-06T06:05:01.233Z,29.30
2023-02-06T06:07:08.411Z,34.15
2023-02-06T06:09:10.362Z,28.80
2023-02-06T06:11:21.684Z,29.83
2023-02-06T06:13:29.215Z,29.92
2023-02-06T06:15:32.303Z,35.70
2023-02-06T06:17:37.259Z,33.92
2023-02-06T06:19:39.261Z,31.33
2023-02-06T06:21:41.143Z,36.70
2023-02-06T06:23:45.159Z,31.35
2023-02-06T06:25:48.647Z,30.23
2023-02-06T06:27:50.621Z,40.95
2023-02-06T06:30:06.325Z,33.08
2023-02-06T06:32:20.300Z,30.92
2023-02-06T06:34:22.878Z,34.80
2023-02-06T06:36:43.114Z,35.90
2023-02-06T06:38:47.154Z,42.25
2023-02-06T06:40:52.151Z,27.50
2023-02-06T06:43:06.118Z,25.85
2023-02-06T06:45:12.209Z,26.33
2023-02-06T06:47:21.089Z,25.38
2023-02-06T06:49:24.132Z,22.27
2023-02-06T06:51:29.538Z,25.70
2023-02-06T06:53:40.268Z,29.38
2023-02-06T06:55:52.301Z,24.87
2023-02-06T06:58:14.483Z,33.85
2023-02-06T07:00:18.668Z,34.38
2023-02-06T07:02:22.786Z,35.63
2023-02-06T07:04:36.742Z,27.17
2023-02-06T07:06:39.732Z,26.67
2023-02-06T07:08:42.569Z,27.85
2023-02-06T07:10:45.627Z,27.77
2023-02-06T07:12:53.901Z,29.05
2023-02-06T07:14:55.849Z,32.40
2023-02-06T07:17:05.746Z,27.98
2023-02-06T07:19:15.802Z,29.60
2023-02-06T07:21:29.863Z,32.25
2023-02-06T07:23:31.826Z,28.58
2023-02-06T07:25:35.199Z,33.88
2023-02-06T07:27:38.062Z,34.08
2023-02-06T07:29:45.958Z,29.02
2023-02-06T07:31:48.023Z,32.22
2023-02-06T07:33:55.875Z,38.20
2023-02-06T07:35:59.008Z,36.10
2023-02-06T07:38:03.066Z,26.92
2023-02-06T07:40:10.139Z,30.23
2023-02-06T07:42:13.771Z,30.40
2023-02-06T07:44:17.872Z,32.80
2023-02-06T07:46:21.477Z,28.77
2023-02-06T07:48:28.604Z,33.85
2023-02-06T07:50:42.514Z,36.90
2023-02-06T07:52:48.469Z,30.50
2023-02-06T07:54:55.410Z,29.67
2023-02-06T07:56:57.398Z,35.00
2023-02-06T07:59:05.577Z,37.55
2023-02-06T08:01:08.085Z,38.53
2023-02-06T08:03:10.210Z,42.63
2023-02-06T08:05:18.642Z,33.17
2023-02-06T08:07:32.807Z,36.47
2023-02-06T08:09:59.464Z,42.42
2023-02-06T08:12:03.496Z,38.47
2023-02-06T08:14:09.834Z,35.28
2023-02-06T08:16:18.827Z,46.08
2023-02-06T08:18:22.835Z,36.25
2023-02-06T08:20:25.679Z,35.97
2023-02-06T08:22:30.232Z,37.75
2023-02-06T08:24:38.124Z,38.17
2023-02-06T08:26:42.072Z,35.92
2023-02-06T08:28:45.740Z,43.60
2023-02-06T08:30:55.551Z,41.72
2023-02-06T08:33:11.400Z,30.63
2023-02-06T08:35:20.613Z,29.75
2023-02-06T08:37:32.721Z,34.17
2023-02-06T08:39:35.662Z,34.63
2023-02-06T08:41:40.292Z,30.80
2023-02-06T08:43:52.251Z,26.15
2023-02-06T08:45:59.777Z,29.33
2023-02-06T08:48:03.928Z,34.50
2023-02-06T08:50:09.085Z,31.10
2023-02-06T08:52:12.062Z,30.05
2023-02-06T08:54:18.211Z,29.45
2023-02-06T08:56:20.198Z,30.95
2023-02-06T08:58:22.121Z,30.85
2023-02-06T09:00:24.243Z,29.30
2023-02-06T09:02:26.214Z,28.92
2023-02-06T09:04:37.566Z,31.77
2023-02-06T09:06:42.362Z,31.52
2023-02-06T09:08:44.843Z,29.20
2023-02-06T09:10:54.696Z,32.97
2023-02-06T09:12:57.960Z,31.73
2023-02-06T09:15:13.119Z,30.00
2023-02-06T09:17:15.082Z,33.75
2023-02-06T09:19:17.080Z,33.67
2023-02-06T09:21:23.791Z,31.65
2023-02-06T09:23:25.890Z,32.10
2023-02-06T09:25:28.834Z,30.25
2023-02-06T09:27:36.294Z,33.65
2023-02-06T09:29:41.767Z,35.83
2023-02-06T09:31:44.883Z,33.95
2023-02-06T09:33:47.846Z,29.67
2023-02-06T09:36:09.894Z,26.92
2023-02-06T09:38:11.830Z,24.70
2023-02-06T09:40:19.372Z,27.05
2023-02-06T09:42:27.272Z,25.00
2023-02-06T09:44:43.637Z,27.65
2023-02-06T09:46:55.050Z,32.03
2023-02-06T09:49:03.335Z,25.50
2023-02-06T09:51:25.045Z,41.78
2023-02-06T09:53:45.122Z,34.20
2023-02-06T09:56:17.709Z,32.58
2023-02-06T09:58:39.886Z,31.83
2023-02-06T10:00:55.843Z,31.83
2023-02-06T10:03:35.323Z,38.67
2023-02-06T10:05:59.172Z,26.55
2023-02-06T10:08:16.119Z,29.25
2023-02-06T10:10:32.031Z,32.47
2023-02-06T10:12:41.882Z,30.08
2023-02-06T10:15:33.147Z,34.30
2023-02-06T10:17:46.695Z,30.90
2023-02-06T10:20:30.044Z,34.90
2023-02-06T10:22:57.699Z,36.53
2023-02-06T10:25:13.926Z,34.25
2023-02-06T10:27:18.100Z,31.35
2023-02-06T10:29:29.479Z,32.80
2023-02-06T10:32:20.465Z,11.38
2023-02-06T10:35:10.941Z,36.88
2023-02-06T10:37:31.416Z,42.90
2023-02-06T10:39:55.065Z,48.45
2023-02-06T10:42:26.150Z,52.97
2023-02-06T10:44:51.820Z,46.40
2023-02-06T10:47:05.148Z,45.92
2023-02-06T10:49:17.105Z,42.83
2023-02-06T10:51:25.617Z,41.53
2023-02-06T10:53:39.512Z,42.30
2023-02-06T10:55:49.282Z,50.10
2023-02-06T10:58:22.342Z,47.95
2023-02-06T11:00:31.136Z,52.70
2023-02-06T11:02:52.796Z,49.63
2023-02-06T11:05:10.608Z,50.70
2023-02-06T11:07:25.207Z,50.35
2023-02-06T11:09:52.778Z,44.30
2023-02-06T11:11:59.996Z,56.38
2023-02-06T11:14:14.560Z,47.70
2023-02-06T11:16:24.684Z,47.03
2023-02-06T11:18:39.738Z,47.63
2023-02-06T11:20:43.953Z,49.60
2023-02-06T11:22:52.619Z,54.00
2023-02-06T11:25:03.638Z,52.50
2023-02-06T11:27:22.985Z,57.85
2023-02-06T11:29:29.038Z,56.95
2023-02-06T11:31:46.882Z,59.25
2023-02-06T11:33:57.291Z,55.65
2023-02-06T11:36:00.791Z,58.60
2023-02-06T11:38:15.699Z,54.95
2023-02-06T11:40:27.568Z,59.75
2023-02-06T11:42:30.544Z,59.33
2023-02-06T11:44:43.465Z,60.42
2023-02-06T11:46:47.604Z,57.78
2023-02-06T11:49:05.970Z,64.05
2023-02-06T11:51:09.640Z,67.03
2023-02-06T11:53:18.623Z,63.95
2023-02-06T11:55:30.998Z,66.10
2023-02-06T11:57:34.323Z,60.83
2023-02-06T11:59:49.316Z,64.55
2023-02-06T12:01:55.614Z,65.53
2023-02-06T12:03:59.594Z,65.95
2023-02-06T12:06:24.617Z,63.13
2023-02-06T12:08:36.518Z,69.63
2023-02-06T12:10:56.484Z,70.78
2023-02-06T12:13:14.542Z,63.80
2023-02-06T12:15:46.080Z,69.47
2023-02-06T12:18:01.512Z,63.95
2023-02-06T12:20:15.272Z,69.95
2023-02-06T12:22:24.850Z,71.93
2023-02-06T12:24:44.037Z,68.97
2023-02-06T12:26:48.029Z,72.82
2023-02-06T12:29:19.873Z,71.50
2023-02-06T12:31:44.300Z,82.18
2023-02-06T12:33:58.856Z,66.25
2023-02-06T12:36:20.945Z,69.40
2023-02-06T12:38:44.744Z,75.72
2023-02-06T12:40:50.585Z,73.20
2023-02-06T12:43:01.562Z,72.88
2023-02-06T12:45:40.443Z,71.22
2023-02-06T12:48:03.855Z,70.85
2023-02-06T12:50:15.582Z,75.60
2023-02-06T12:54:33.216Z,81.05
2023-02-06T12:56:42.023Z,75.35
2023-02-06T12:59:06.324Z,71.45
2023-02-06T13:01:47.026Z,73.30
2023-02-06T13:04:01.916Z,73.45
2023-02-06T13:06:25.747Z,71.82
2023-02-06T13:08:58.201Z,70.25
2023-02-06T13:11:10.769Z,75.65
2023-02-06T13:13:29.479Z,69.47
2023-02-06T13:15:41.914Z,72.25
2023-02-06T13:17:45.360Z,73.32
2023-02-06T13:20:18.377Z,75.50
2023-02-06T13:22:45.146Z,72.07
2023-02-06T13:24:51.444Z,75.55
2023-02-06T13:26:56.653Z,77.95
2023-02-06T13:29:00.123Z,69.18
2023-02-06T13:31:09.982Z,74.43
2023-02-06T13:33:21.125Z,73.63
2023-02-06T13:35:29.968Z,75.05
2023-02-06T13:37:41.068Z,73.82
2023-02-06T13:39:48.089Z,70.20
2023-02-06T13:41:52.526Z,68.30
2023-02-06T13:44:30.931Z,72.88
2023-02-06T13:47:09.947Z,73.40
2023-02-06T13:49:36.572Z,73.63
2023-02-06T13:52:05.898Z,78.15
2023-02-06T13:54:26.800Z,74.97
2023-02-06T13:56:58.607Z,71.93
2023-02-06T13:59:06.674Z,67.53
2023-02-06T14:01:26.162Z,71.22
2023-02-06T14:03:34.995Z,73.70
2023-02-06T14:05:54.001Z,70.35
2023-02-06T14:08:29.251Z,73.75
2023-02-06T14:11:02.465Z,73.35
2023-02-06T14:13:21.397Z,71.72
2023-02-06T14:15:53.980Z,70.45
2023-02-06T14:18:18.590Z,66.15
2023-02-06T14:20:52.960Z,71.55
2023-02-06T14:23:31.836Z,68.90
2023-02-06T14:25:49.399Z,66.95
2023-02-06T14:28:02.479Z,70.82
2023-02-06T14:30:20.748Z,68.35
2023-02-06T14:32:38.768Z,65.93
2023-02-06T14:35:02.694Z,68.80
2023-02-06T14:37:13.240Z,67.30
2023-02-06T14:39:52.671Z,69.57
2023-02-06T14:41:54.879Z,68.47
2023-02-06T14:43:57.818Z,66.22
2023-02-06T14:46:08.096Z,65.85
2023-02-06T14:48:48.469Z,66.70
2023-02-06T14:50:56.542Z,62.88
2023-02-06T14:53:25.688Z,64.28
2023-02-06T14:55:31.996Z,69.25
2023-02-06T14:57:33.977Z,63.40
2023-02-06T14:59:35.983Z,70.05
2023-02-06T15:01:41.914Z,68.15
2023-02-06T15:03:45.681Z,73.28
2023-02-06T15:05:59.681Z,69.47
2023-02-06T15:08:03.939Z,71.78
2023-02-06T15:10:13.546Z,70.28
2023-02-06T15:12:21.838Z,72.22
2023-02-06T15:14:30.356Z,67.70
2023-02-06T15:16:46.540Z,68.95
2023-02-06T15:18:49.567Z,67.68
2023-02-06T15:21:07.563Z,66.55
2023-02-06T15:23:18.834Z,69.00
2023-02-06T15:25:44.680Z,70.57
2023-02-06T15:27:46.746Z,68.72
2023-02-06T15:29:50.569Z,77.80
2023-02-06T15:31:57.982Z,69.90
2023-02-06T15:34:02.868Z,69.20
2023-02-06T15:36:05.290Z,66.05
2023-02-06T15:38:13.585Z,70.38
2023-02-06T15:40:31.413Z,64.15
2023-02-06T15:43:25.488Z,66.18
2023-02-06T15:45:36.099Z,70.43
2023-02-06T15:47:41.614Z,63.72
2023-02-06T15:49:46.339Z,62.72
2023-02-06T15:51:55.164Z,64.00
2023-02-06T15:54:23.189Z,62.22
2023-02-06T15:56:30.100Z,61.83
2023-02-06T15:58:34.217Z,61.15
2023-02-06T16:00:38.040Z,60.00
2023-02-06T16:02:41.267Z,57.35
2023-02-06T16:04:43.332Z,64.30
2023-02-06T16:06:47.045Z,59.72
2023-02-06T16:08:55.756Z,53.50
2023-02-06T16:11:02.738Z,59.70
2023-02-06T16:13:11.273Z,61.60
2023-02-06T16:15:26.580Z,57.58
2023-02-06T16:17:38.092Z,61.88
2023-02-06T16:19:54.379Z,61.03
2023-02-06T16:22:28.453Z,60.42
2023-02-06T16:24:31.589Z,55.42
2023-02-06T16:26:52.441Z,58.00
2023-02-06T16:28:57.436Z,58.37
2023-02-06T16:31:05.986Z,62.08
2023-02-06T16:33:37.556Z,55.95
2023-02-06T16:35:39.893Z,56.10
2023-02-06T16:37:42.222Z,55.28
2023-02-06T16:39:48.370Z,59.50
2023-02-06T16:41:55.498Z,58.95
2023-02-06T16:43:59.086Z,64.22
2023-02-06T16:46:11.894Z,56.97
2023-02-06T16:48:19.071Z,58.63
2023-02-06T16:50:24.546Z,55.95
2023-02-06T16:52:43.788Z,54.65
2023-02-06T16:54:59.854Z,49.85
2023-02-06T16:57:36.932Z,56.78
2023-02-06T16:59:44.852Z,50.83
2023-02-06T17:01:59.156Z,56.17
2023-02-06T17:04:03.040Z,51.22
2023-02-06T17:06:17.453Z,53.97
2023-02-06T17:08:24.670Z,50.03
2023-02-06T17:10:32.921Z,60.58
2023-02-06T17:12:43.398Z,61.42
2023-02-06T17:14:49.312Z,62.13
2023-02-06T17:16:56.815Z,64.30
2023-02-06T17:19:21.322Z,66.22
2023-02-06T17:21:26.669Z,64.15
2023-02-06T17:23:35.473Z,65.32
2023-02-06T17:25:43.039Z,62.33
2023-02-06T17:27:47.312Z,62.22
2023-02-06T17:29:57.919Z,66.15
2023-02-06T17:32:11.216Z,65.97
2023-02-06T17:34:18.980Z,64.90
2023-02-06T17:36:33.068Z,70.53
2023-02-06T17:38:37.788Z,68.68
2023-02-06T17:40:42.389Z,69.35
2023-02-06T17:42:46.527Z,72.45
2023-02-06T17:44:49.557Z,66.85
2023-02-06T17:46:57.902Z,73.80
2023-02-06T17:49:07.841Z,74.57
2023-02-06T17:51:15.134Z,76.47
2023-02-06T17:53:21.524Z,76.53
2023-02-06T17:55:32.512Z,78.38
2023-02-06T17:57:41.681Z,72.32
2023-02-06T17:59:57.255Z,73.03
2023-02-06T18:02:08.003Z,73.60
2023-02-06T18:04:18.160Z,74.82
2023-02-06T18:06:25.821Z,73.53
2023-02-06T18:08:31.349Z,78.38
2023-02-06T18:10:41.019Z,77.78
2023-02-06T18:12:48.410Z,80.68
2023-02-06T18:14:52.751Z,86.07
2023-02-06T18:16:59.576Z,84.25
2023-02-06T18:19:07.181Z,90.28
2023-02-06T18:21:10.951Z,92.05
2023-02-06T18:23:14.116Z,91.10
2023-02-06T18:25:17.883Z,93.65
2023-02-06T18:27:23.505Z,94.47
2023-02-06T18:29:25.772Z,95.35
2023-02-06T18:31:37.516Z,90.22
2023-02-06T18:35:53.280Z,97.57
2023-02-06T18:37:56.375Z,85.75
2023-02-06T18:39:59.796Z,94.55
2023-02-06T18:42:23.168Z,87.18
2023-02-06T18:44:26.216Z,89.10
2023-02-06T18:46:28.719Z,90.15
2023-02-06T18:48:42.519Z,90.15
2023-02-06T18:50:58.119Z,95.82
2023-02-06T18:53:03.316Z,99.78
2023-02-06T18:55:10.106Z,104.97
2023-02-06T18:57:19.163Z,112.25
2023-02-06T18:59:23.473Z,104.13
2023-02-06T19:01:28.094Z,99.32
2023-02-06T19:03:40.311Z,101.13
2023-02-06T19:05:44.797Z,92.28
2023-02-06T19:07:56.080Z,86.18
2023-02-06T19:10:03.122Z,92.80
2023-02-06T19:12:07.052Z,90.97
2023-02-06T19:14:15.884Z,87.05
2023-02-06T19:16:20.576Z,90.30
2023-02-06T19:18:39.594Z,88.00
2023-02-06T19:20:43.346Z,88.10
2023-02-06T19:22:47.468Z,90.10
2023-02-06T19:24:54.607Z,84.07
2023-02-06T19:26:59.166Z,82.78
2023-02-06T19:29:01.961Z,86.15
2023-02-06T19:31:06.880Z,92.07
2023-02-06T19:33:13.821Z,94.78
2023-02-06T19:35:19.611Z,90.32
2023-02-06T19:37:23.495Z,94.13
2023-02-06T19:39:29.861Z,93.53
2023-02-06T19:41:39.919Z,94.82
2023-02-06T19:43:46.303Z,89.82
2023-02-06T19:45:49.341Z,93.88
2023-02-06T19:47:58.516Z,88.57
2023-02-06T19:50:02.416Z,86.63
2023-02-06T19:52:09.472Z,81.53
2023-02-06T19:54:14.973Z,92.05
2023-02-06T19:56:27.138Z,91.78
2023-02-06T19:58:33.922Z,100.63
2023-02-06T20:00:43.881Z,89.90
2023-02-06T20:02:47.687Z,92.80
2023-02-06T20:04:50.369Z,85.05
2023-02-06T20:06:56.620Z,110.45
2023-02-06T20:08:58.871Z,118.25
2023-02-06T20:11:06.997Z,110.38
2023-02-06T20:13:10.854Z,115.50
2023-02-06T20:15:14.718Z,107.82
2023-02-06T20:17:18.860Z,100.95
2023-02-06T20:19:25.951Z,103.78
2023-02-06T20:21:33.666Z,109.82
2023-02-06T20:23:44.058Z,102.90
2023-02-06T20:25:50.422Z,111.68
2023-02-06T20:27:59.684Z,99.20
2023-02-06T20:30:02.361Z,92.38
2023-02-06T20:32:08.330Z,86.38
2023-02-06T20:34:17.912Z,95.05
2023-02-06T20:36:28.773Z,95.55
2023-02-06T20:38:37.825Z,88.07
2023-02-06T20:40:45.836Z,86.57
2023-02-06T20:43:01.662Z,99.53
2023-02-06T20:45:07.590Z,107.28
2023-02-06T20:47:10.221Z,102.60
2023-02-06T20:49:24.617Z,102.88
2023-02-06T20:51:33.894Z,99.68
2023-02-06T20:53:42.561Z,102.20
2023-02-06T20:55:52.738Z,103.60
2023-02-06T20:57:56.657Z,95.25
2023-02-06T20:59:58.972Z,95.70
2023-02-06T21:02:01.366Z,95.00
2023-02-06T21:04:08.171Z,91.13
2023-02-06T21:06:17.783Z,97.70
2023-02-06T21:08:21.300Z,90.97
2023-02-06T21:10:31.698Z,85.78
2023-02-06T21:12:38.279Z,82.15
2023-02-06T21:14:48.779Z,79.15
2023-02-06T21:16:57.591Z,72.18
2023-02-06T21:19:01.352Z,80.10
2023-02-06T21:21:13.260Z,86.28
2023-02-06T21:25:28.893Z,91.93
2023-02-06T21:27:32.391Z,79.47
2023-02-06T21:29:45.305Z,82.55
2023-02-06T21:31:48.364Z,79.57
2023-02-06T21:33:52.329Z,83.68
2023-02-06T21:35:55.588Z,79.68
2023-02-06T21:37:58.855Z,73.05
2023-02-06T21:40:03.533Z,71.15
2023-02-06T21:42:05.628Z,80.28
2023-02-06T21:44:23.913Z,75.32
2023-02-06T21:46:31.878Z,72.50
2023-02-06T21:48:40.610Z,68.47
2023-02-06T21:50:42.696Z,83.55
2023-02-06T21:52:45.612Z,78.05
2023-02-06T21:54:48.540Z,82.60
2023-02-06T21:56:54.728Z,71.63
2023-02-06T21:58:58.151Z,74.13
2023-02-06T22:01:01.378Z,65.63
2023-02-06T22:03:03.529Z,70.35
2023-02-06T22:05:10.694Z,63.53
2023-02-06T22:07:15.982Z,73.93
2023-02-06T22:09:19.139Z,69.97
2023-02-06T22:11:27.792Z,74.07
2023-02-06T22:13:30.762Z,66.97
2023-02-06T22:15:33.871Z,62.38
2023-02-06T22:17:43.695Z,65.97
2023-02-06T22:19:49.061Z,67.18
2023-02-06T22:21:52.455Z,61.28
2023-02-06T22:23:59.281Z,67.53
2023-02-06T22:26:02.977Z,66.20
2023-02-06T22:28:05.980Z,67.80
2023-02-06T22:30:16.503Z,64.30
2023-02-06T22:32:35.757Z,68.05
2023-02-06T22:34:43.815Z,63.72
2023-02-06T22:36:49.262Z,59.28
2023-02-06T22:38:57.749Z,67.07
2023-02-06T22:41:12.672Z,57.45
2023-02-06T22:43:15.727Z,58.38
2023-02-06T22:45:20.732Z,62.72
2023-02-06T22:47:28.849Z,62.25
2023-02-06T22:49:32.062Z,60.30
2023-02-06T22:51:37.655Z,59.08
2023-02-06T22:53:59.543Z,57.00
2023-02-06T22:59:06.532Z,60.53
2023-02-06T23:01:13.498Z,53.45
2023-02-06T23:03:16.494Z,55.35
2023-02-06T23:05:19.557Z,58.17
2023-02-06T23:07:22.486Z,55.83
2023-02-06T23:09:28.728Z,64.35
2023-02-06T23:11:34.751Z,60.20
2023-02-06T23:13:41.372Z,58.38
2023-02-06T23:15:51.796Z,60.15
2023-02-06T23:17:53.916Z,60.72
2023-02-06T23:19:59.876Z,58.47
2023-02-06T23:22:08.146Z,57.65
2023-02-06T23:24:11.307Z,53.90
2023-02-06T23:26:21.216Z,51.28
2023-02-06T23:28:29.366Z,48.47
2023-02-06T23:30:31.418Z,55.03
2023-02-06T23:32:55.178Z,54.38
2023-02-06T23:35:01.253Z,55.47
2023-02-06T23:37:22.161Z,59.15
2023-02-06T23:39:28.086Z,52.40
2023-02-06T23:41:46.278Z,54.83
2023-02-06T23:43:59.049Z,54.80
2023-02-06T23:46:11.974Z,58.15
2023-02-06T23:48:14.259Z,54.63
2023-02-06T23:50:27.379Z,62.25
2023-02-06T23:52:34.994Z,55.20
2023-02-06T23:54:36.870Z,55.28
